createdAt,value
2023-03-06T00:01:09.623Z,99065.59
2023-03-06T00:03:37.529Z,99065.63
2023-03-06T00:06:05.551Z,99058.84
2023-03-06T00:08:33.376Z,99032.69
2023-03-06T00:11:01.177Z,99021.72
2023-03-06T00:13:30.639Z,99007.38
2023-03-06T00:16:01.233Z,98993.88
2023-03-06T00:18:29.213Z,98974.50
2023-03-06T00:20:56.999Z,98960.16
2023-03-06T00:23:24.756Z,98946.66
2023-03-06T00:25:52.540Z,98939.06
2023-03-06T00:28:20.304Z,98918.81
2023-03-06T00:30:48.827Z,98909.56
2023-03-06T00:33:18.030Z,98896.91
2023-03-06T00:35:45.940Z,98890.16
2023-03-06T00:38:13.860Z,98882.56
2023-03-06T00:40:41.688Z,98875.00
2023-03-06T00:43:09.549Z,98880.91
2023-03-06T00:45:37.648Z,98910.38
2023-03-06T00:48:06.327Z,98936.53
2023-03-06T00:50:36.224Z,98969.44
2023-03-06T00:53:04.029Z,98978.72
2023-03-06T00:55:33.520Z,98984.59
2023-03-06T00:58:01.399Z,98993.03
2023-03-06T01:00:29.478Z,98990.50
2023-03-06T01:02:57.274Z,99001.47
2023-03-06T01:05:25.217Z,98995.56
2023-03-06T01:07:54.349Z,98998.09
2023-03-06T01:10:22.500Z,99001.47
2023-03-06T01:12:50.414Z,99015.84
2023-03-06T01:15:19.409Z,99015.84
2023-03-06T01:17:47.939Z,99012.47
2023-03-06T01:20:18.677Z,99009.06
2023-03-06T01:22:46.733Z,99006.53
2023-03-06T01:25:15.858Z,99006.53
2023-03-06T01:27:43.965Z,99002.34
2023-03-06T01:30:13.177Z,98998.94
2023-03-06T01:32:41.118Z,98992.19
2023-03-06T01:35:09.946Z,98982.94
2023-03-06T01:37:38.957Z,98983.81
2023-03-06T01:40:09.511Z,98977.06
2023-03-06T01:42:38.736Z,98955.91
2023-03-06T01:45:09.306Z,98950.00
2023-03-06T01:47:37.847Z,98953.41
2023-03-06T01:50:09.652Z,98944.13
2023-03-06T01:52:43.470Z,98928.06
2023-03-06T01:55:15.481Z,98917.97
2023-03-06T01:57:47.820Z,98909.56
2023-03-06T02:00:18.608Z,98899.44
2023-03-06T02:02:51.135Z,98882.56
2023-03-06T02:05:19.054Z,98863.19
2023-03-06T02:07:48.066Z,98860.69
2023-03-06T02:10:16.916Z,98850.53
2023-03-06T02:12:47.828Z,98844.69
2023-03-06T02:15:18.612Z,98828.69
2023-03-06T02:17:48.774Z,98817.69
2023-03-06T02:20:26.209Z,98809.28
2023-03-06T02:23:01.117Z,98794.09
2023-03-06T02:25:36.743Z,98774.69
2023-03-06T02:28:06.181Z,98757.00
2023-03-06T02:30:34.455Z,98746.09
2023-03-06T02:33:02.787Z,98731.75
2023-03-06T02:35:33.072Z,98721.66
2023-03-06T02:38:05.569Z,98715.75
2023-03-06T02:40:35.267Z,98726.75
2023-03-06T02:43:03.175Z,98718.28
2023-03-06T02:45:37.661Z,98718.28
2023-03-06T02:48:06.153Z,98722.50
2023-03-06T02:50:34.275Z,98729.25
2023-03-06T02:53:02.288Z,98729.22
2023-03-06T02:55:31.999Z,98739.38
2023-03-06T02:58:01.966Z,98742.69
2023-03-06T03:00:31.720Z,98754.53
2023-03-06T03:03:02.202Z,98757.88
2023-03-06T03:05:31.464Z,98768.84
2023-03-06T03:08:06.581Z,98763.75
2023-03-06T03:10:34.898Z,98780.63
2023-03-06T03:13:04.222Z,98787.34
2023-03-06T03:15:33.436Z,98789.03
2023-03-06T03:18:01.461Z,98797.47
2023-03-06T03:20:29.181Z,98806.72
2023-03-06T03:22:57.283Z,98816.00
2023-03-06T03:25:26.572Z,98817.69
2023-03-06T03:27:57.237Z,98821.91
2023-03-06T03:30:26.490Z,98833.69
2023-03-06T03:32:54.729Z,98852.22
2023-03-06T03:35:22.711Z,98860.69
2023-03-06T03:37:52.520Z,98864.88
2023-03-06T03:40:20.420Z,98877.53
2023-03-06T03:42:51.487Z,98884.28
2023-03-06T03:45:20.592Z,98885.13
2023-03-06T03:47:49.770Z,98897.78
2023-03-06T03:50:17.920Z,98889.31
2023-03-06T03:52:45.847Z,98887.63
2023-03-06T03:55:14.033Z,98894.41
2023-03-06T03:57:43.151Z,98896.09
2023-03-06T04:00:16.332Z,98895.25
2023-03-06T04:03:06.258Z,98893.56
2023-03-06T04:05:38.451Z,98896.06
2023-03-06T04:08:08.264Z,98891.00
2023-03-06T04:10:39.603Z,98896.06
2023-03-06T04:13:10.199Z,98899.44
2023-03-06T04:15:42.572Z,98898.63
2023-03-06T04:18:12.890Z,98893.53
2023-03-06T04:20:41.425Z,98899.47
2023-03-06T04:23:09.344Z,98891.91
2023-03-06T04:25:38.676Z,98883.44
2023-03-06T04:28:09.869Z,98877.50
2023-03-06T04:30:37.708Z,98873.31
2023-03-06T04:33:06.129Z,98865.75
2023-03-06T04:35:35.348Z,98865.75
2023-03-06T04:38:08.162Z,98865.75
2023-03-06T04:40:37.316Z,98861.56
2023-03-06T04:43:06.179Z,98856.44
2023-03-06T04:45:34.351Z,98851.41
2023-03-06T04:48:02.476Z,98847.19
2023-03-06T04:50:32.591Z,98848.88
2023-03-06T04:53:03.553Z,98843.81
2023-03-06T04:55:31.812Z,98838.78
2023-03-06T04:57:59.965Z,98842.16
2023-03-06T05:00:31.383Z,98843.88
2023-03-06T05:03:00.701Z,98834.56
2023-03-06T05:05:28.951Z,98843.00
2023-03-06T05:07:56.881Z,98825.28
2023-03-06T05:10:26.102Z,98818.56
2023-03-06T05:12:53.996Z,98800.84
2023-03-06T05:15:22.173Z,98778.09
2023-03-06T05:17:50.024Z,98769.69
2023-03-06T05:20:18.377Z,98743.56
2023-03-06T05:22:46.379Z,98725.88
2023-03-06T05:25:14.334Z,98718.31
2023-03-06T05:27:43.963Z,98699.81
2023-03-06T05:30:14.622Z,98681.28
2023-03-06T05:32:42.835Z,98688.00
2023-03-06T05:35:17.962Z,98686.31
2023-03-06T05:37:45.968Z,98695.63
2023-03-06T05:40:14.837Z,98693.09
2023-03-06T05:42:43.984Z,98693.91
2023-03-06T05:45:12.934Z,98699.81
2023-03-06T05:47:40.698Z,98697.28
2023-03-06T05:50:10.497Z,98695.63
2023-03-06T05:52:39.445Z,98698.16
2023-03-06T05:55:08.775Z,98688.84
2023-03-06T05:57:36.612Z,98681.28
2023-03-06T06:00:07.291Z,98686.34
2023-03-06T06:02:40.689Z,98674.56
2023-03-06T06:05:11.789Z,98678.75
2023-03-06T06:07:40.741Z,98679.59
2023-03-06T06:10:09.526Z,98674.56
2023-03-06T06:12:37.348Z,98678.75
2023-03-06T06:15:08.109Z,98674.56
2023-03-06T06:17:35.996Z,98681.31
2023-03-06T06:20:04.617Z,98678.75
2023-03-06T06:22:32.412Z,98665.28
2023-03-06T06:25:00.372Z,98667.81
2023-03-06T06:27:28.188Z,98673.72
2023-03-06T06:29:56.039Z,98676.25
2023-03-06T06:32:25.245Z,98678.75
2023-03-06T06:34:53.190Z,98679.59
2023-03-06T06:37:20.959Z,98685.50
2023-03-06T06:39:48.758Z,98681.28
2023-03-06T06:42:39.022Z,98688.88
2023-03-06T06:45:05.858Z,98687.19
2023-03-06T06:47:37.027Z,98694.78
2023-03-06T06:50:05.395Z,98697.28
2023-03-06T06:52:33.342Z,98706.56
2023-03-06T06:55:01.122Z,98716.66
2023-03-06T06:57:28.897Z,98725.94
2023-03-06T06:59:56.698Z,98733.50
2023-03-06T07:02:24.516Z,98739.41
2023-03-06T07:05:03.619Z,98744.47
2023-03-06T07:07:34.224Z,98752.91
2023-03-06T07:10:02.416Z,98742.72
2023-03-06T07:12:32.407Z,98746.97
2023-03-06T07:15:00.297Z,98757.97
2023-03-06T07:17:28.078Z,98768.06
2023-03-06T07:19:57.234Z,98771.41
2023-03-06T07:22:25.142Z,98786.63
2023-03-06T07:24:52.947Z,98797.53
2023-03-06T07:27:22.879Z,98805.94
2023-03-06T07:29:50.628Z,98836.31
2023-03-06T07:32:18.934Z,98857.38
2023-03-06T07:34:46.741Z,98889.41
2023-03-06T07:37:15.976Z,98910.47
2023-03-06T07:39:43.813Z,98939.13
2023-03-06T07:42:14.060Z,98972.06
2023-03-06T07:44:48.786Z,98990.63
2023-03-06T07:47:16.729Z,99016.72
2023-03-06T07:49:44.467Z,99028.53
2023-03-06T07:52:12.753Z,99035.28
2023-03-06T07:54:42.053Z,99042.06
2023-03-06T07:57:09.950Z,99042.06
2023-03-06T07:59:37.794Z,99053.88
2023-03-06T08:02:05.664Z,99055.56
2023-03-06T08:04:34.049Z,99064.00
2023-03-06T08:07:03.415Z,99058.06
2023-03-06T08:09:31.686Z,99053.88
2023-03-06T08:12:01.325Z,99057.25
2023-03-06T08:14:29.216Z,99063.16
2023-03-06T08:16:57.309Z,99077.47
2023-03-06T08:19:25.019Z,99084.25
2023-03-06T08:21:52.917Z,99104.50
2023-03-06T08:24:20.928Z,99108.72
2023-03-06T08:26:48.825Z,99116.34
2023-03-06T08:29:18.006Z,99115.50
2023-03-06T08:31:48.563Z,99128.16
2023-03-06T08:34:18.853Z,99125.66
2023-03-06T08:36:46.991Z,99116.34
2023-03-06T08:39:15.174Z,99123.09
2023-03-06T08:41:43.280Z,99116.34
2023-03-06T08:44:11.689Z,99111.28
2023-03-06T08:46:41.036Z,99102.84
2023-03-06T08:49:08.801Z,99102.88
2023-03-06T08:51:36.908Z,99087.66
2023-03-06T08:54:05.250Z,99080.88
2023-03-06T08:56:34.966Z,99082.59
2023-03-06T08:59:05.526Z,99078.34
2023-03-06T09:01:36.547Z,99074.13
2023-03-06T09:04:08.355Z,99080.88
2023-03-06T09:06:38.636Z,99087.63
2023-03-06T09:09:07.833Z,99080.03
2023-03-06T09:11:35.721Z,99094.44
2023-03-06T09:14:03.918Z,99101.16
2023-03-06T09:16:31.732Z,99116.34
2023-03-06T09:18:59.614Z,99124.81
2023-03-06T09:21:28.864Z,99124.78
2023-03-06T09:23:57.020Z,99138.28
2023-03-06T09:26:39.699Z,99150.13
2023-03-06T09:29:13.009Z,99188.13
2023-03-06T09:31:40.834Z,99205.03
2023-03-06T09:34:08.824Z,99235.41
2023-03-06T09:36:53.286Z,99267.50
2023-03-06T09:39:23.075Z,99313.09
2023-03-06T09:41:51.959Z,99348.63
2023-03-06T09:44:21.862Z,99363.84
2023-03-06T09:47:04.067Z,99359.63
2023-03-06T09:50:04.935Z,99343.56
2023-03-06T09:52:43.440Z,99339.34
2023-03-06T09:55:14.188Z,99335.94
2023-03-06T09:57:46.295Z,99341.03
2023-03-06T10:00:17.635Z,99339.34
2023-03-06T10:02:48.838Z,99325.00
2023-03-06T10:05:20.803Z,99314.81
2023-03-06T10:07:54.086Z,99321.59
2023-03-06T10:10:25.583Z,99318.22
2023-03-06T10:13:03.316Z,99315.69
2023-03-06T10:15:36.189Z,99335.94
2023-03-06T10:18:05.703Z,99379.06
2023-03-06T10:20:38.341Z,99417.13
2023-03-06T10:23:26.405Z,99459.41
2023-03-06T10:26:00.990Z,99476.31
2023-03-06T10:28:35.530Z,99467.84
2023-03-06T10:31:10.682Z,99465.31
2023-03-06T10:33:48.716Z,99450.09
2023-03-06T10:36:18.660Z,99463.63
2023-03-06T10:38:48.891Z,99478.84
2023-03-06T10:41:29.043Z,99482.22
2023-03-06T10:44:20.718Z,99478.84
2023-03-06T10:46:51.541Z,99489.00
2023-03-06T10:49:32.517Z,99492.38
2023-03-06T10:52:04.014Z,99488.97
2023-03-06T10:54:35.095Z,99479.63
2023-03-06T10:57:20.989Z,99487.28
2023-03-06T10:59:54.465Z,99503.41
2023-03-06T11:02:27.750Z,99506.75
2023-03-06T11:04:57.136Z,99510.16
2023-03-06T11:07:26.129Z,99520.28
2023-03-06T11:10:05.871Z,99527.91
2023-03-06T11:12:35.441Z,99547.38
2023-03-06T11:15:10.391Z,99581.25
2023-03-06T11:17:48.852Z,99606.59
2023-03-06T11:20:18.710Z,99638.78
2023-03-06T11:22:50.784Z,99676.91
2023-03-06T11:25:23.670Z,99708.22
2023-03-06T11:27:56.924Z,99740.41
2023-03-06T11:30:27.456Z,99773.47
2023-03-06T11:33:00.120Z,99803.94
2023-03-06T11:35:29.954Z,99831.09
2023-03-06T11:38:01.720Z,99836.16
2023-03-06T11:40:34.733Z,99832.75
2023-03-06T11:43:14.534Z,99830.22
2023-03-06T11:45:47.204Z,99833.63
2023-03-06T11:48:24.468Z,99845.50
2023-03-06T11:50:54.416Z,99868.38
2023-03-06T11:53:28.186Z,99878.53
2023-03-06T11:56:04.715Z,99908.25
2023-03-06T11:58:54.617Z,99937.91
2023-03-06T12:01:28.447Z,99965.91
2023-03-06T12:04:32.031Z,99978.63
2023-03-06T12:07:09.275Z,99959.94
2023-03-06T12:09:46.242Z,99945.53
2023-03-06T12:12:26.048Z,99928.56
2023-03-06T12:15:25.349Z,99931.09
2023-03-06T12:18:02.654Z,99931.09
2023-03-06T12:20:46.797Z,99937.06
2023-03-06T12:23:31.033Z,99935.38
2023-03-06T12:26:05.038Z,99941.31
2023-03-06T12:28:47.034Z,99949.78
2023-03-06T12:31:38.325Z,99944.69
2023-03-06T12:34:18.514Z,99931.97
2023-03-06T12:36:54.937Z,99899.75
2023-03-06T12:39:30.870Z,99877.69
2023-03-06T12:42:22.989Z,99843.78
2023-03-06T12:45:23.454Z,99812.41
2023-03-06T12:47:56.572Z,99781.06
2023-03-06T12:50:27.701Z,99777.69
2023-03-06T12:52:57.805Z,99743.78
2023-03-06T12:55:26.172Z,99753.97
2023-03-06T12:57:54.173Z,99740.41
2023-03-06T13:01:06.033Z,99728.53
2023-03-06T13:03:45.733Z,99731.94
2023-03-06T13:06:30.892Z,99741.25
2023-03-06T13:09:08.312Z,99758.19
2023-03-06T13:12:23.771Z,99768.38
2023-03-06T13:14:57.208Z,99748.88
2023-03-06T13:17:33.192Z,99681.97
2023-03-06T13:20:29.146Z,99599.84
2023-03-06T13:22:57.843Z,99532.97
2023-03-06T13:25:47.769Z,99516.91
2023-03-06T13:28:27.382Z,99494.06
2023-03-06T13:30:56.001Z,99486.44
2023-03-06T13:33:54.820Z,99481.38
2023-03-06T13:36:28.290Z,99485.59
2023-03-06T13:39:09.665Z,99495.75
2023-03-06T13:41:56.336Z,99467.84
2023-03-06T13:44:50.905Z,99428.06
2023-03-06T13:48:10.698Z,99395.09
2023-03-06T13:50:41.349Z,99350.31
2023-03-06T13:53:56.333Z,99297.91
2023-03-06T13:56:55.498Z,99269.19
2023-03-06T13:59:39.467Z,99211.75
2023-03-06T14:02:29.913Z,99181.31
2023-03-06T14:04:59.626Z,99154.31
2023-03-06T14:07:30.484Z,99162.78
2023-03-06T14:10:10.460Z,99231.19
2023-03-06T14:12:41.587Z,99327.47
2023-03-06T14:15:19.062Z,99369.75
2023-03-06T14:17:57.382Z,99405.25
2023-03-06T14:20:33.109Z,99439.91
2023-03-06T14:23:24.543Z,99470.34
2023-03-06T14:26:01.205Z,99488.97
2023-03-06T14:28:31.909Z,99561.75
2023-03-06T14:31:02.120Z,99615.06
2023-03-06T14:33:39.826Z,99620.97
2023-03-06T14:36:08.838Z,99610.84
2023-03-06T14:38:44.884Z,99610.84
2023-03-06T14:41:14.149Z,99647.22
2023-03-06T14:43:42.036Z,99661.63
2023-03-06T14:46:20.781Z,99677.69
2023-03-06T14:48:50.146Z,99684.47
2023-03-06T14:51:20.229Z,99713.28
2023-03-06T14:53:51.249Z,99695.50
2023-03-06T15:03:00.662Z,99605.75
2023-03-06T15:05:30.558Z,99563.44
2023-03-06T15:08:03.636Z,99549.03
2023-03-06T15:10:35.746Z,99529.59
2023-03-06T15:13:11.795Z,99521.13
2023-03-06T15:15:39.681Z,99523.66
2023-03-06T15:18:29.915Z,99540.59
2023-03-06T15:21:08.734Z,99550.75
2023-03-06T15:23:38.246Z,99559.19
2023-03-06T15:26:22.287Z,99576.97
2023-03-06T15:29:08.182Z,99571.03
2023-03-06T15:31:38.399Z,99555.81
2023-03-06T15:34:23.720Z,99567.69
2023-03-06T15:36:56.453Z,99575.28
2023-03-06T15:39:28.255Z,99554.09
2023-03-06T15:41:59.895Z,99543.97
2023-03-06T15:44:30.134Z,99546.50
2023-03-06T15:47:08.558Z,99534.66
2023-03-06T15:49:38.094Z,99530.41
2023-03-06T15:52:06.062Z,99530.41
2023-03-06T15:54:33.885Z,99542.25
2023-03-06T15:57:05.275Z,99549.88
2023-03-06T15:59:44.180Z,99547.34
2023-03-06T16:02:17.208Z,99538.03
2023-03-06T16:04:45.412Z,99542.28
2023-03-06T16:07:13.524Z,99536.34
2023-03-06T16:09:41.681Z,99532.13
2023-03-06T16:12:17.625Z,99536.34
2023-03-06T16:14:45.853Z,99532.94
2023-03-06T16:17:14.057Z,99531.25
2023-03-06T16:19:42.100Z,99521.97
2023-03-06T16:22:09.921Z,99520.28
2023-03-06T16:24:37.710Z,99532.97
2023-03-06T16:27:06.997Z,99528.75
2023-03-06T16:29:36.324Z,99535.50
2023-03-06T16:32:04.640Z,99532.13
2023-03-06T16:34:32.525Z,99530.41
2023-03-06T16:37:00.358Z,99532.09
2023-03-06T16:39:28.241Z,99527.91
2023-03-06T16:41:56.412Z,99506.72
2023-03-06T16:44:24.192Z,99498.25
2023-03-06T16:46:53.507Z,99500.81
2023-03-06T16:49:23.196Z,99502.47
2023-03-06T16:51:51.914Z,99501.66
2023-03-06T16:54:20.212Z,99485.59
2023-03-06T16:56:48.122Z,99489.81
2023-03-06T16:59:15.971Z,99474.56
2023-03-06T17:01:43.877Z,99450.88
2023-03-06T17:04:13.212Z,99431.47
2023-03-06T17:06:41.881Z,99406.91
2023-03-06T17:09:10.790Z,99386.63
2023-03-06T17:11:39.509Z,99358.72
2023-03-06T17:14:07.392Z,99339.31
2023-03-06T17:16:36.970Z,99322.41
2023-03-06T17:19:04.954Z,99296.16
2023-03-06T17:21:35.408Z,99282.69
2023-03-06T17:24:03.823Z,99262.44
2023-03-06T17:26:31.940Z,99246.31
2023-03-06T17:28:59.857Z,99229.47
2023-03-06T17:31:28.924Z,99221.88
2023-03-06T17:34:00.420Z,99203.28
2023-03-06T17:36:28.753Z,99193.16
2023-03-06T17:38:59.209Z,99174.59
2023-03-06T17:41:27.450Z,99162.75
2023-03-06T17:43:57.770Z,99139.97
2023-03-06T17:46:26.566Z,99123.91
2023-03-06T17:48:54.549Z,99118.88
2023-03-06T17:51:22.464Z,99095.25
2023-03-06T17:53:52.172Z,99059.78
2023-03-06T17:56:21.421Z,99023.50
2023-03-06T17:58:49.203Z,99004.09
2023-03-06T18:01:19.268Z,98983.00
2023-03-06T18:03:49.374Z,98961.09
2023-03-06T18:06:17.950Z,98948.47
2023-03-06T18:08:45.979Z,98922.31
2023-03-06T18:11:14.735Z,98902.88
2023-03-06T18:13:46.370Z,98885.22
2023-03-06T18:16:16.257Z,98872.53
2023-03-06T18:18:44.206Z,98853.19
2023-03-06T18:21:14.318Z,98841.41
2023-03-06T18:23:42.385Z,98831.28
2023-03-06T18:26:12.421Z,98826.22
2023-03-06T18:28:42.505Z,98800.09
2023-03-06T18:31:17.190Z,98789.16
2023-03-06T18:33:45.178Z,98768.09
2023-03-06T18:36:12.931Z,98743.63
2023-03-06T18:38:43.957Z,98732.72
2023-03-06T18:41:13.008Z,98720.91
2023-03-06T18:43:44.049Z,98709.13
2023-03-06T18:46:12.585Z,98699.84
2023-03-06T18:48:41.804Z,98688.94
2023-03-06T18:51:13.979Z,98667.84
2023-03-06T18:53:42.340Z,98654.44
2023-03-06T18:56:11.127Z,98648.53
2023-03-06T18:58:38.924Z,98627.47
2023-03-06T19:01:07.825Z,98619.06
2023-03-06T19:03:35.724Z,98608.13
2023-03-06T19:06:08.655Z,98603.06
2023-03-06T19:08:38.488Z,98585.38
2023-03-06T19:11:08.519Z,98579.50
2023-03-06T19:13:36.448Z,98566.03
2023-03-06T19:16:05.643Z,98554.22
2023-03-06T19:18:33.979Z,98535.72
2023-03-06T19:21:10.994Z,98525.63
2023-03-06T19:23:39.488Z,98523.94
2023-03-06T19:26:08.451Z,98534.09
2023-03-06T19:28:37.802Z,98535.75
2023-03-06T19:31:10.937Z,98530.69
2023-03-06T19:33:39.095Z,98512.16
2023-03-06T19:36:10.204Z,98509.69
2023-03-06T19:38:37.992Z,98506.31
2023-03-06T19:41:06.526Z,98508.00
2023-03-06T19:43:34.453Z,98511.34
2023-03-06T19:46:02.339Z,98505.47
2023-03-06T19:48:30.261Z,98499.56
2023-03-06T19:50:58.115Z,98492.88
2023-03-06T19:53:28.297Z,98470.97
2023-03-06T19:56:04.057Z,98447.44
2023-03-06T19:58:31.968Z,98439.91
2023-03-06T20:01:05.142Z,98424.78
2023-03-06T20:03:33.048Z,98402.88
2023-03-06T20:06:00.974Z,98390.31
2023-03-06T20:08:30.184Z,98377.66
2023-03-06T20:10:58.032Z,98372.66
2023-03-06T20:13:25.848Z,98360.03
2023-03-06T20:15:53.657Z,98354.13
2023-03-06T20:18:21.588Z,98345.72
2023-03-06T20:20:58.248Z,98340.69
2023-03-06T20:23:26.181Z,98339.03
2023-03-06T20:25:55.392Z,98335.69
2023-03-06T20:28:23.800Z,98328.09
2023-03-06T20:30:51.585Z,98322.22
2023-03-06T20:33:22.141Z,98323.91
2023-03-06T20:35:50.096Z,98323.88
2023-03-06T20:38:17.975Z,98328.09
2023-03-06T20:40:45.836Z,98344.06
2023-03-06T20:43:15.132Z,98346.56
2023-03-06T20:45:42.988Z,98359.19
2023-03-06T20:48:10.784Z,98358.34
2023-03-06T20:50:38.694Z,98362.56
2023-03-06T20:53:06.438Z,98365.09
2023-03-06T20:55:37.485Z,98364.25
2023-03-06T20:58:05.333Z,98356.69
2023-03-06T21:00:34.622Z,98349.97
2023-03-06T21:03:02.364Z,98344.94
2023-03-06T21:05:30.172Z,98343.25
2023-03-06T21:07:58.030Z,98331.47
2023-03-06T21:10:25.842Z,98332.31
2023-03-06T21:12:53.632Z,98324.75
2023-03-06T21:15:21.628Z,98323.91
2023-03-06T21:17:50.767Z,98331.50
2023-03-06T21:20:18.704Z,98342.41
2023-03-06T21:22:46.522Z,98353.28
2023-03-06T21:25:14.903Z,98379.34
2023-03-06T21:27:42.656Z,98405.44
2023-03-06T21:30:11.842Z,98423.09
2023-03-06T21:32:39.653Z,98439.03
2023-03-06T21:35:09.379Z,98460.06
2023-03-06T21:37:37.273Z,98481.94
2023-03-06T21:40:06.639Z,98503.81
2023-03-06T21:42:36.105Z,98518.06
2023-03-06T21:45:04.076Z,98548.38
2023-03-06T21:47:37.670Z,98573.66
2023-03-06T21:50:06.170Z,98606.47
2023-03-06T21:52:35.347Z,98628.34
2023-03-06T21:55:03.151Z,98642.63
2023-03-06T21:57:31.122Z,98663.72
2023-03-06T21:59:58.885Z,98681.38
2023-03-06T22:02:26.768Z,98688.09
2023-03-06T22:04:54.779Z,98699.84
2023-03-06T22:07:22.925Z,98715.91
2023-03-06T22:09:54.249Z,98731.06
2023-03-06T22:12:22.372Z,98728.50
2023-03-06T22:14:50.206Z,98745.41
2023-03-06T22:21:26.634Z,98748.69
2023-03-06T22:23:57.225Z,98763.06
2023-03-06T22:26:27.438Z,98763.88
2023-03-06T22:28:55.500Z,98764.72
2023-03-06T22:31:25.838Z,98774.84
2023-03-06T22:33:54.397Z,98770.66
2023-03-06T22:36:23.050Z,98766.41
2023-03-06T22:38:55.648Z,98764.72
2023-03-06T22:41:23.577Z,98766.44
2023-03-06T22:43:53.620Z,98752.09
2023-03-06T22:46:21.531Z,98754.66
2023-03-06T22:48:49.443Z,98750.44
2023-03-06T22:51:19.544Z,98747.91
2023-03-06T22:53:48.119Z,98753.81
2023-03-06T22:56:18.484Z,98752.94
2023-03-06T22:58:46.366Z,98748.72
2023-03-06T23:01:17.102Z,98761.34
2023-03-06T23:06:37.550Z,98765.56
2023-03-06T23:09:07.856Z,98778.19
2023-03-06T23:11:54.089Z,98799.28
2023-03-06T23:14:40.471Z,98821.16
2023-03-06T23:17:26.710Z,98847.28
2023-03-06T23:20:14.577Z,98870.03
2023-03-06T23:23:02.352Z,98893.66
2023-03-06T23:25:42.718Z,98914.75
2023-03-06T23:28:10.799Z,98918.97
2023-03-06T23:30:39.546Z,98935.81
2023-03-06T23:33:07.420Z,98940.00
2023-03-06T23:35:35.812Z,98949.34
2023-03-06T23:38:04.953Z,98954.38
2023-03-06T23:40:34.807Z,98952.69
2023-03-06T23:43:02.729Z,98950.97
2023-03-06T23:45:30.537Z,98942.56
2023-03-06T23:47:58.917Z,98928.19
2023-03-06T23:50:27.066Z,98918.94
2023-03-06T23:52:55.505Z,98906.28
2023-03-06T23:55:24.580Z,98900.38
2023-03-06T23:57:52.350Z,98895.34
